sensor_id;sensor_type;location;lat;lon;timestamp;temperature;humidity
22623;DHT22;11478;51.094;7.030;2023-07-13T00:00:43;14.90;99.90
22623;DHT22;11478;51.094;7.030;2023-07-13T00:03:09;14.90;99.90
22623;DHT22;11478;51.094;7.030;2023-07-13T00:05:40;14.80;99.90
22623;DHT22;11478;51.094;7.030;2023-07-13T00:08:07;14.70;99.90
22623;DHT22;11478;51.094;7.030;2023-07-13T00:10:40;14.60;99.90
22623;DHT22;11478;51.094;7.030;2023-07-13T00:13:07;14.60;99.90
22623;DHT22;11478;51.094;7.030;2023-07-13T00:15:47;14.50;99.90
22623;DHT22;11478;51.094;7.030;2023-07-13T00:18:13;14.40;99.90
22623;DHT22;11478;51.094;7.030;2023-07-13T00:20:43;14.40;99.90
22623;DHT22;11478;51.094;7.030;2023-07-13T00:23:16;14.30;99.90
22623;DHT22;11478;51.094;7.030;2023-07-13T00:25:43;14.20;99.90
22623;DHT22;11478;51.094;7.030;2023-07-13T00:28:09;14.20;99.90
22623;DHT22;11478;51.094;7.030;2023-07-13T00:30:35;14.10;99.90
22623;DHT22;11478;51.094;7.030;2023-07-13T00:33:00;14.10;99.90
22623;DHT22;11478;51.094;7.030;2023-07-13T00:35:27;14.00;99.90
22623;DHT22;11478;51.094;7.030;2023-07-13T00:37:53;14.00;99.90
22623;DHT22;11478;51.094;7.030;2023-07-13T00:40:19;14.00;99.90
22623;DHT22;11478;51.094;7.030;2023-07-13T00:42:45;13.90;99.90
22623;DHT22;11478;51.094;7.030;2023-07-13T00:47:58;13.90;99.90
22623;DHT22;11478;51.094;7.030;2023-07-13T00:50:24;13.80;99.90
22623;DHT22;11478;51.094;7.030;2023-07-13T00:52:54;13.80;99.90
22623;DHT22;11478;51.094;7.030;2023-07-13T00:55:21;13.80;99.90
22623;DHT22;11478;51.094;7.030;2023-07-13T00:57:50;13.70;99.90
22623;DHT22;11478;51.094;7.030;2023-07-13T01:00:16;13.70;99.90
22623;DHT22;11478;51.094;7.030;2023-07-13T01:02:49;13.70;99.90
22623;DHT22;11478;51.094;7.030;2023-07-13T01:05:18;13.70;99.90
22623;DHT22;11478;51.094;7.030;2023-07-13T01:07:53;13.70;99.90
22623;DHT22;11478;51.094;7.030;2023-07-13T01:10:21;13.70;99.90
22623;DHT22;11478;51.094;7.030;2023-07-13T01:12:58;13.60;99.90
22623;DHT22;11478;51.094;7.030;2023-07-13T01:18:22;13.50;99.90
22623;DHT22;11478;51.094;7.030;2023-07-13T01:21:00;13.50;99.90
22623;DHT22;11478;51.094;7.030;2023-07-13T01:23:27;13.50;99.90
22623;DHT22;11478;51.094;7.030;2023-07-13T01:25:56;13.50;99.90
22623;DHT22;11478;51.094;7.030;2023-07-13T01:28:23;13.40;99.90
22623;DHT22;11478;51.094;7.030;2023-07-13T01:30:53;13.40;99.90
22623;DHT22;11478;51.094;7.030;2023-07-13T01:33:20;13.40;99.90
22623;DHT22;11478;51.094;7.030;2023-07-13T01:35:56;13.30;99.90
22623;DHT22;11478;51.094;7.030;2023-07-13T01:38:25;13.30;99.90
22623;DHT22;11478;51.094;7.030;2023-07-13T01:40:52;13.30;99.90
22623;DHT22;11478;51.094;7.030;2023-07-13T01:43:19;13.20;99.90
22623;DHT22;11478;51.094;7.030;2023-07-13T01:45:46;13.20;99.90
22623;DHT22;11478;51.094;7.030;2023-07-13T01:48:13;13.20;99.90
22623;DHT22;11478;51.094;7.030;2023-07-13T01:50:39;13.10;99.90
22623;DHT22;11478;51.094;7.030;2023-07-13T01:53:06;13.10;99.90
22623;DHT22;11478;51.094;7.030;2023-07-13T01:55:33;13.10;99.90
22623;DHT22;11478;51.094;7.030;2023-07-13T01:57:59;13.10;99.90
22623;DHT22;11478;51.094;7.030;2023-07-13T02:00:25;13.00;99.90
22623;DHT22;11478;51.094;7.030;2023-07-13T02:02:51;13.00;99.90
22623;DHT22;11478;51.094;7.030;2023-07-13T02:05:18;12.90;99.90
22623;DHT22;11478;51.094;7.030;2023-07-13T02:07:44;12.90;99.90
22623;DHT22;11478;51.094;7.030;2023-07-13T02:10:12;12.80;99.90
22623;DHT22;11478;51.094;7.030;2023-07-13T02:12:38;12.80;99.90
22623;DHT22;11478;51.094;7.030;2023-07-13T02:15:05;12.80;99.90
22623;DHT22;11478;51.094;7.030;2023-07-13T02:17:31;12.80;99.90
22623;DHT22;11478;51.094;7.030;2023-07-13T02:19:58;12.80;99.90
22623;DHT22;11478;51.094;7.030;2023-07-13T02:22:24;12.70;99.90
22623;DHT22;11478;51.094;7.030;2023-07-13T02:24:51;12.70;99.90
22623;DHT22;11478;51.094;7.030;2023-07-13T02:27:19;12.70;99.90
22623;DHT22;11478;51.094;7.030;2023-07-13T02:29:45;12.60;99.90
22623;DHT22;11478;51.094;7.030;2023-07-13T02:32:12;12.60;99.90
22623;DHT22;11478;51.094;7.030;2023-07-13T02:34:38;12.70;99.90
22623;DHT22;11478;51.094;7.030;2023-07-13T02:37:05;12.60;99.90
22623;DHT22;11478;51.094;7.030;2023-07-13T02:39:31;12.60;99.90
22623;DHT22;11478;51.094;7.030;2023-07-13T02:42:01;12.60;99.90
22623;DHT22;11478;51.094;7.030;2023-07-13T02:44:27;12.60;99.90
22623;DHT22;11478;51.094;7.030;2023-07-13T02:47:02;12.50;99.90
22623;DHT22;11478;51.094;7.030;2023-07-13T02:49:28;12.50;99.90
22623;DHT22;11478;51.094;7.030;2023-07-13T02:52:09;12.50;99.90
22623;DHT22;11478;51.094;7.030;2023-07-13T02:54:35;12.50;99.90
22623;DHT22;11478;51.094;7.030;2023-07-13T02:57:02;12.50;99.90
22623;DHT22;11478;51.094;7.030;2023-07-13T02:59:28;12.50;99.90
22623;DHT22;11478;51.094;7.030;2023-07-13T03:01:55;12.50;99.90
22623;DHT22;11478;51.094;7.030;2023-07-13T03:04:21;12.50;99.90
22623;DHT22;11478;51.094;7.030;2023-07-13T03:06:56;12.50;99.90
22623;DHT22;11478;51.094;7.030;2023-07-13T03:09:24;12.50;99.90
22623;DHT22;11478;51.094;7.030;2023-07-13T03:11:55;12.50;99.90
22623;DHT22;11478;51.094;7.030;2023-07-13T03:14:24;12.40;99.90
22623;DHT22;11478;51.094;7.030;2023-07-13T03:16:58;12.40;99.90
22623;DHT22;11478;51.094;7.030;2023-07-13T03:19:24;12.40;99.90
22623;DHT22;11478;51.094;7.030;2023-07-13T03:21:52;12.40;99.90
22623;DHT22;11478;51.094;7.030;2023-07-13T03:24:18;12.40;99.90
22623;DHT22;11478;51.094;7.030;2023-07-13T03:26:44;12.40;99.90
22623;DHT22;11478;51.094;7.030;2023-07-13T03:29:10;12.40;99.90
22623;DHT22;11478;51.094;7.030;2023-07-13T03:31:45;12.40;99.90
22623;DHT22;11478;51.094;7.030;2023-07-13T03:34:11;12.40;99.90
22623;DHT22;11478;51.094;7.030;2023-07-13T03:36:50;12.40;99.90
22623;DHT22;11478;51.094;7.030;2023-07-13T03:39:15;12.30;99.90
22623;DHT22;11478;51.094;7.030;2023-07-13T03:41:43;12.30;99.90
22623;DHT22;11478;51.094;7.030;2023-07-13T03:44:09;12.30;99.90
22623;DHT22;11478;51.094;7.030;2023-07-13T03:46:55;12.30;99.90
22623;DHT22;11478;51.094;7.030;2023-07-13T03:49:21;12.30;99.90
22623;DHT22;11478;51.094;7.030;2023-07-13T03:51:53;12.30;99.90
22623;DHT22;11478;51.094;7.030;2023-07-13T03:54:19;12.30;99.90
22623;DHT22;11478;51.094;7.030;2023-07-13T03:56:55;12.30;99.90
22623;DHT22;11478;51.094;7.030;2023-07-13T03:59:21;12.20;99.90
22623;DHT22;11478;51.094;7.030;2023-07-13T04:01:52;12.20;99.90
22623;DHT22;11478;51.094;7.030;2023-07-13T04:04:18;12.20;99.90
22623;DHT22;11478;51.094;7.030;2023-07-13T04:06:46;12.20;99.90
22623;DHT22;11478;51.094;7.030;2023-07-13T04:09:12;12.20;99.90
22623;DHT22;11478;51.094;7.030;2023-07-13T04:11:45;12.20;99.90
22623;DHT22;11478;51.094;7.030;2023-07-13T04:14:11;12.20;99.90
22623;DHT22;11478;51.094;7.030;2023-07-13T04:16:50;12.20;99.90
22623;DHT22;11478;51.094;7.030;2023-07-13T04:19:16;12.30;99.90
22623;DHT22;11478;51.094;7.030;2023-07-13T04:21:44;12.30;99.90
22623;DHT22;11478;51.094;7.030;2023-07-13T04:24:10;12.30;99.90
22623;DHT22;11478;51.094;7.030;2023-07-13T04:26:45;12.40;99.90
22623;DHT22;11478;51.094;7.030;2023-07-13T04:29:11;12.40;99.90
22623;DHT22;11478;51.094;7.030;2023-07-13T04:31:43;12.40;99.90
22623;DHT22;11478;51.094;7.030;2023-07-13T04:34:09;12.40;99.90
22623;DHT22;11478;51.094;7.030;2023-07-13T04:36:46;12.50;99.90
22623;DHT22;11478;51.094;7.030;2023-07-13T04:39:12;12.50;99.90
22623;DHT22;11478;51.094;7.030;2023-07-13T04:41:53;12.50;99.90
22623;DHT22;11478;51.094;7.030;2023-07-13T04:44:21;12.60;99.90
22623;DHT22;11478;51.094;7.030;2023-07-13T04:46:51;12.60;99.90
22623;DHT22;11478;51.094;7.030;2023-07-13T04:49:17;12.70;99.90
22623;DHT22;11478;51.094;7.030;2023-07-13T04:51:43;12.70;99.90
22623;DHT22;11478;51.094;7.030;2023-07-13T04:54:09;12.80;99.90
22623;DHT22;11478;51.094;7.030;2023-07-13T04:56:35;12.90;99.90
22623;DHT22;11478;51.094;7.030;2023-07-13T04:59:01;12.90;99.90
22623;DHT22;11478;51.094;7.030;2023-07-13T05:01:28;13.00;99.90
22623;DHT22;11478;51.094;7.030;2023-07-13T05:03:55;13.10;99.90
22623;DHT22;11478;51.094;7.030;2023-07-13T05:06:25;13.10;99.90
22623;DHT22;11478;51.094;7.030;2023-07-13T05:08:51;13.20;99.90
22623;DHT22;11478;51.094;7.030;2023-07-13T05:11:20;13.20;99.90
22623;DHT22;11478;51.094;7.030;2023-07-13T05:13:46;13.30;99.90
22623;DHT22;11478;51.094;7.030;2023-07-13T05:16:12;13.30;99.90
22623;DHT22;11478;51.094;7.030;2023-07-13T05:18:38;13.40;99.90
22623;DHT22;11478;51.094;7.030;2023-07-13T05:21:20;13.40;99.90
22623;DHT22;11478;51.094;7.030;2023-07-13T05:23:47;13.50;99.90
22623;DHT22;11478;51.094;7.030;2023-07-13T05:26:14;13.50;99.90
22623;DHT22;11478;51.094;7.030;2023-07-13T05:28:40;13.60;99.90
22623;DHT22;11478;51.094;7.030;2023-07-13T05:31:08;13.60;99.90
22623;DHT22;11478;51.094;7.030;2023-07-13T05:33:34;13.70;99.90
22623;DHT22;11478;51.094;7.030;2023-07-13T05:36:00;13.80;99.90
22623;DHT22;11478;51.094;7.030;2023-07-13T05:38:27;13.80;99.90
22623;DHT22;11478;51.094;7.030;2023-07-13T05:40:54;13.90;99.90
22623;DHT22;11478;51.094;7.030;2023-07-13T05:43:21;14.00;99.90
22623;DHT22;11478;51.094;7.030;2023-07-13T05:45:52;14.00;99.90
22623;DHT22;11478;51.094;7.030;2023-07-13T05:48:19;14.20;99.90
22623;DHT22;11478;51.094;7.030;2023-07-13T05:50:47;14.20;99.90
22623;DHT22;11478;51.094;7.030;2023-07-13T05:53:13;14.30;99.90
22623;DHT22;11478;51.094;7.030;2023-07-13T05:55:44;14.40;99.90
22623;DHT22;11478;51.094;7.030;2023-07-13T05:58:13;14.50;99.90
22623;DHT22;11478;51.094;7.030;2023-07-13T06:00:41;14.60;99.90
22623;DHT22;11478;51.094;7.030;2023-07-13T06:03:07;14.80;99.90
22623;DHT22;11478;51.094;7.030;2023-07-13T06:05:35;14.90;99.90
22623;DHT22;11478;51.094;7.030;2023-07-13T06:08:02;15.00;99.90
22623;DHT22;11478;51.094;7.030;2023-07-13T06:10:36;15.10;99.90
22623;DHT22;11478;51.094;7.030;2023-07-13T06:13:02;15.20;99.90
22623;DHT22;11478;51.094;7.030;2023-07-13T06:15:28;15.30;99.90
22623;DHT22;11478;51.094;7.030;2023-07-13T06:17:54;15.30;99.90
22623;DHT22;11478;51.094;7.030;2023-07-13T06:20:23;15.40;99.90
22623;DHT22;11478;51.094;7.030;2023-07-13T06:22:49;15.50;99.90
22623;DHT22;11478;51.094;7.030;2023-07-13T06:25:15;15.60;99.90
22623;DHT22;11478;51.094;7.030;2023-07-13T06:27:46;15.60;99.90
22623;DHT22;11478;51.094;7.030;2023-07-13T06:30:12;15.70;99.90
22623;DHT22;11478;51.094;7.030;2023-07-13T06:32:45;15.80;99.90
22623;DHT22;11478;51.094;7.030;2023-07-13T06:35:16;15.90;99.90
22623;DHT22;11478;51.094;7.030;2023-07-13T06:37:48;16.00;99.90
22623;DHT22;11478;51.094;7.030;2023-07-13T06:40:14;16.10;99.90
22623;DHT22;11478;51.094;7.030;2023-07-13T06:42:49;16.20;99.90
22623;DHT22;11478;51.094;7.030;2023-07-13T06:45:15;16.30;99.90
22623;DHT22;11478;51.094;7.030;2023-07-13T06:47:48;16.40;99.90
22623;DHT22;11478;51.094;7.030;2023-07-13T06:50:14;16.50;99.90
22623;DHT22;11478;51.094;7.030;2023-07-13T06:52:43;16.60;99.90
22623;DHT22;11478;51.094;7.030;2023-07-13T06:55:08;16.70;99.90
22623;DHT22;11478;51.094;7.030;2023-07-13T06:57:38;16.70;99.90
22623;DHT22;11478;51.094;7.030;2023-07-13T07:00:05;16.80;99.90
22623;DHT22;11478;51.094;7.030;2023-07-13T07:02:32;16.90;99.90
22623;DHT22;11478;51.094;7.030;2023-07-13T07:04:58;16.90;99.90
22623;DHT22;11478;51.094;7.030;2023-07-13T07:07:26;16.90;99.90
22623;DHT22;11478;51.094;7.030;2023-07-13T08:16:33;18.10;99.90
22623;DHT22;11478;51.094;7.030;2023-07-13T08:19:09;18.50;99.90
22623;DHT22;11478;51.094;7.030;2023-07-13T08:21:37;18.60;99.90
22623;DHT22;11478;51.094;7.030;2023-07-13T08:24:04;18.70;99.90
22623;DHT22;11478;51.094;7.030;2023-07-13T08:26:30;18.90;99.90
22623;DHT22;11478;51.094;7.030;2023-07-13T08:29:02;19.00;99.90
22623;DHT22;11478;51.094;7.030;2023-07-13T08:31:28;19.20;99.90
22623;DHT22;11478;51.094;7.030;2023-07-13T08:34:02;19.40;99.90
22623;DHT22;11478;51.094;7.030;2023-07-13T08:36:28;19.60;99.90
22623;DHT22;11478;51.094;7.030;2023-07-13T08:38:57;19.60;99.90
22623;DHT22;11478;51.094;7.030;2023-07-13T08:41:23;19.60;99.90
22623;DHT22;11478;51.094;7.030;2023-07-13T08:43:54;19.60;99.90
22623;DHT22;11478;51.094;7.030;2023-07-13T08:46:38;19.50;99.90
22623;DHT22;11478;51.094;7.030;2023-07-13T08:49:11;19.40;99.90
22623;DHT22;11478;51.094;7.030;2023-07-13T08:51:57;19.40;99.90
22623;DHT22;11478;51.094;7.030;2023-07-13T08:54:40;19.40;99.90
22623;DHT22;11478;51.094;7.030;2023-07-13T08:57:14;19.40;99.90
22623;DHT22;11478;51.094;7.030;2023-07-13T08:59:48;19.40;99.90
22623;DHT22;11478;51.094;7.030;2023-07-13T09:02:28;19.40;99.90
22623;DHT22;11478;51.094;7.030;2023-07-13T09:05:22;19.30;99.90
22623;DHT22;11478;51.094;7.030;2023-07-13T09:16:13;19.30;99.90
22623;DHT22;11478;51.094;7.030;2023-07-13T09:18:49;19.40;99.90
22623;DHT22;11478;51.094;7.030;2023-07-13T09:33:25;19.90;99.90
22623;DHT22;11478;51.094;7.030;2023-07-13T09:36:00;20.00;99.90
22623;DHT22;11478;51.094;7.030;2023-07-13T09:38:28;20.00;99.90
22623;DHT22;11478;51.094;7.030;2023-07-13T09:41:11;20.00;99.90
22623;DHT22;11478;51.094;7.030;2023-07-13T09:46:34;20.10;99.90
22623;DHT22;11478;51.094;7.030;2023-07-13T09:49:12;20.10;99.90
22623;DHT22;11478;51.094;7.030;2023-07-13T09:51:41;20.10;99.90
22623;DHT22;11478;51.094;7.030;2023-07-13T09:54:26;20.10;99.90
22623;DHT22;11478;51.094;7.030;2023-07-13T09:56:58;20.10;99.90
22623;DHT22;11478;51.094;7.030;2023-07-13T09:59:32;20.20;99.90
22623;DHT22;11478;51.094;7.030;2023-07-13T10:02:02;20.30;99.90
22623;DHT22;11478;51.094;7.030;2023-07-13T10:04:38;20.40;99.90
22623;DHT22;11478;51.094;7.030;2023-07-13T10:07:05;20.40;99.90
22623;DHT22;11478;51.094;7.030;2023-07-13T10:09:31;20.40;99.90
22623;DHT22;11478;51.094;7.030;2023-07-13T10:11:58;20.50;99.90
22623;DHT22;11478;51.094;7.030;2023-07-13T10:14:30;20.50;99.90
22623;DHT22;11478;51.094;7.030;2023-07-13T10:17:24;20.50;99.90
22623;DHT22;11478;51.094;7.030;2023-07-13T10:23:41;20.60;99.90
22623;DHT22;11478;51.094;7.030;2023-07-13T10:26:31;20.70;99.90
22623;DHT22;11478;51.094;7.030;2023-07-13T10:32:40;20.90;99.90
22623;DHT22;11478;51.094;7.030;2023-07-13T10:35:10;20.90;99.90
22623;DHT22;11478;51.094;7.030;2023-07-13T10:38:32;21.00;99.90
22623;DHT22;11478;51.094;7.030;2023-07-13T10:41:11;21.00;99.90
22623;DHT22;11478;51.094;7.030;2023-07-13T10:44:18;21.10;99.90
22623;DHT22;11478;51.094;7.030;2023-07-13T10:47:36;21.10;99.90
22623;DHT22;11478;51.094;7.030;2023-07-13T10:50:05;21.10;99.90
22623;DHT22;11478;51.094;7.030;2023-07-13T11:05:36;21.10;99.90
22623;DHT22;11478;51.094;7.030;2023-07-13T11:08:33;21.00;99.90
22623;DHT22;11478;51.094;7.030;2023-07-13T11:11:02;21.00;99.90
22623;DHT22;11478;51.094;7.030;2023-07-13T11:13:37;21.10;99.90
22623;DHT22;11478;51.094;7.030;2023-07-13T11:19:24;21.20;99.90
22623;DHT22;11478;51.094;7.030;2023-07-13T11:25:02;21.20;99.90
22623;DHT22;11478;51.094;7.030;2023-07-13T11:31:29;21.10;99.90
22623;DHT22;11478;51.094;7.030;2023-07-13T11:34:16;21.00;99.90
22623;DHT22;11478;51.094;7.030;2023-07-13T11:37:16;21.00;99.90
22623;DHT22;11478;51.094;7.030;2023-07-13T11:39:48;21.00;99.90
22623;DHT22;11478;51.094;7.030;2023-07-13T11:42:44;21.10;99.90
22623;DHT22;11478;51.094;7.030;2023-07-13T11:45:45;21.20;99.90
22623;DHT22;11478;51.094;7.030;2023-07-13T11:48:43;21.30;99.90
22623;DHT22;11478;51.094;7.030;2023-07-13T11:51:53;21.30;99.90
22623;DHT22;11478;51.094;7.030;2023-07-13T11:54:34;21.20;99.90
22623;DHT22;11478;51.094;7.030;2023-07-13T11:57:35;21.10;99.90
22623;DHT22;11478;51.094;7.030;2023-07-13T12:00:13;21.00;99.90
22623;DHT22;11478;51.094;7.030;2023-07-13T12:02:47;20.90;99.90
22623;DHT22;11478;51.094;7.030;2023-07-13T12:05:15;20.80;99.90
22623;DHT22;11478;51.094;7.030;2023-07-13T12:07:54;20.90;99.90
22623;DHT22;11478;51.094;7.030;2023-07-13T12:10:30;20.90;99.90
22623;DHT22;11478;51.094;7.030;2023-07-13T12:13:04;21.00;99.90
22623;DHT22;11478;51.094;7.030;2023-07-13T12:15:43;21.00;99.90
22623;DHT22;11478;51.094;7.030;2023-07-13T12:18:16;21.10;99.90
22623;DHT22;11478;51.094;7.030;2023-07-13T12:20:46;21.00;99.90
22623;DHT22;11478;51.094;7.030;2023-07-13T12:23:39;21.00;99.90
22623;DHT22;11478;51.094;7.030;2023-07-13T12:26:13;21.00;99.90
22623;DHT22;11478;51.094;7.030;2023-07-13T12:28:49;21.00;99.90
22623;DHT22;11478;51.094;7.030;2023-07-13T12:31:49;21.10;99.90
22623;DHT22;11478;51.094;7.030;2023-07-13T12:34:17;21.30;99.90
22623;DHT22;11478;51.094;7.030;2023-07-13T12:36:51;21.40;99.90
22623;DHT22;11478;51.094;7.030;2023-07-13T12:39:36;21.40;99.90
22623;DHT22;11478;51.094;7.030;2023-07-13T12:42:27;21.30;99.90
22623;DHT22;11478;51.094;7.030;2023-07-13T12:47:42;21.40;99.90
22623;DHT22;11478;51.094;7.030;2023-07-13T12:50:19;21.50;99.90
22623;DHT22;11478;51.094;7.030;2023-07-13T12:52:51;21.60;99.90
22623;DHT22;11478;51.094;7.030;2023-07-13T12:55:53;21.60;99.90
22623;DHT22;11478;51.094;7.030;2023-07-13T12:58:43;21.60;99.90
22623;DHT22;11478;51.094;7.030;2023-07-13T13:01:14;21.70;99.90
22623;DHT22;11478;51.094;7.030;2023-07-13T13:03:50;21.90;99.90
22623;DHT22;11478;51.094;7.030;2023-07-13T13:06:33;22.00;99.90
22623;DHT22;11478;51.094;7.030;2023-07-13T13:12:13;22.00;99.90
22623;DHT22;11478;51.094;7.030;2023-07-13T13:14:42;21.90;99.90
22623;DHT22;11478;51.094;7.030;2023-07-13T13:17:37;21.90;99.90
22623;DHT22;11478;51.094;7.030;2023-07-13T13:20:18;21.90;99.90
22623;DHT22;11478;51.094;7.030;2023-07-13T13:22:48;21.90;99.90
22623;DHT22;11478;51.094;7.030;2023-07-13T13:25:18;22.00;99.90
22623;DHT22;11478;51.094;7.030;2023-07-13T13:27:49;22.10;99.90
22623;DHT22;11478;51.094;7.030;2023-07-13T13:30:17;22.10;99.90
22623;DHT22;11478;51.094;7.030;2023-07-13T13:32:46;22.10;99.90
22623;DHT22;11478;51.094;7.030;2023-07-13T13:35:17;22.10;99.90
22623;DHT22;11478;51.094;7.030;2023-07-13T13:38:19;22.30;99.90
22623;DHT22;11478;51.094;7.030;2023-07-13T13:40:46;22.40;99.90
22623;DHT22;11478;51.094;7.030;2023-07-13T13:43:43;22.40;99.90
22623;DHT22;11478;51.094;7.030;2023-07-13T13:46:51;22.40;99.90
22623;DHT22;11478;51.094;7.030;2023-07-13T13:49:31;22.40;99.90
22623;DHT22;11478;51.094;7.030;2023-07-13T13:52:09;22.30;99.90
22623;DHT22;11478;51.094;7.030;2023-07-13T13:54:37;22.30;99.90
22623;DHT22;11478;51.094;7.030;2023-07-13T13:57:12;22.30;99.90
22623;DHT22;11478;51.094;7.030;2023-07-13T13:59:41;22.40;99.90
22623;DHT22;11478;51.094;7.030;2023-07-13T14:02:38;22.60;99.90
22623;DHT22;11478;51.094;7.030;2023-07-13T14:05:24;22.80;99.90
22623;DHT22;11478;51.094;7.030;2023-07-13T14:08:15;22.80;99.90
22623;DHT22;11478;51.094;7.030;2023-07-13T14:10:48;22.70;99.90
22623;DHT22;11478;51.094;7.030;2023-07-13T14:13:21;22.60;99.90
22623;DHT22;11478;51.094;7.030;2023-07-13T14:15:49;22.60;99.90
22623;DHT22;11478;51.094;7.030;2023-07-13T14:18:18;22.60;99.90
22623;DHT22;11478;51.094;7.030;2023-07-13T14:20:45;22.60;99.90
22623;DHT22;11478;51.094;7.030;2023-07-13T14:23:18;22.50;99.90
22623;DHT22;11478;51.094;7.030;2023-07-13T14:25:45;22.50;99.90
22623;DHT22;11478;51.094;7.030;2023-07-13T14:28:24;22.50;99.90
22623;DHT22;11478;51.094;7.030;2023-07-13T14:30:51;22.50;99.90
22623;DHT22;11478;51.094;7.030;2023-07-13T14:33:21;22.60;99.90
22623;DHT22;11478;51.094;7.030;2023-07-13T14:35:47;22.60;99.90
22623;DHT22;11478;51.094;7.030;2023-07-13T14:38:19;22.60;99.90
22623;DHT22;11478;51.094;7.030;2023-07-13T14:40:49;22.50;99.90
22623;DHT22;11478;51.094;7.030;2023-07-13T14:43:16;22.40;99.90
22623;DHT22;11478;51.094;7.030;2023-07-13T14:45:55;22.40;99.90
22623;DHT22;11478;51.094;7.030;2023-07-13T14:48:25;22.30;99.90
22623;DHT22;11478;51.094;7.030;2023-07-13T14:51:16;22.20;99.90
22623;DHT22;11478;51.094;7.030;2023-07-13T14:54:14;22.20;99.90
22623;DHT22;11478;51.094;7.030;2023-07-13T14:59:10;22.30;99.90
22623;DHT22;11478;51.094;7.030;2023-07-13T15:04:50;22.30;99.90
22623;DHT22;11478;51.094;7.030;2023-07-13T15:07:25;22.30;99.90
22623;DHT22;11478;51.094;7.030;2023-07-13T15:09:51;22.30;99.90
22623;DHT22;11478;51.094;7.030;2023-07-13T15:12:18;22.40;99.90
22623;DHT22;11478;51.094;7.030;2023-07-13T15:14:49;22.40;99.90
22623;DHT22;11478;51.094;7.030;2023-07-13T15:17:39;22.40;99.90
22623;DHT22;11478;51.094;7.030;2023-07-13T15:23:18;22.20;99.90
22623;DHT22;11478;51.094;7.030;2023-07-13T15:25:46;22.10;99.90
22623;DHT22;11478;51.094;7.030;2023-07-13T15:28:15;22.00;99.90
22623;DHT22;11478;51.094;7.030;2023-07-13T15:30:48;21.90;99.90
22623;DHT22;11478;51.094;7.030;2023-07-13T15:33:23;21.80;99.90
22623;DHT22;11478;51.094;7.030;2023-07-13T15:36:31;21.70;99.90
22623;DHT22;11478;51.094;7.030;2023-07-13T15:39:24;21.60;99.90
22623;DHT22;11478;51.094;7.030;2023-07-13T15:41:51;21.40;99.90
22623;DHT22;11478;51.094;7.030;2023-07-13T15:47:17;20.90;99.90
22623;DHT22;11478;51.094;7.030;2023-07-13T15:49:43;20.60;99.90
22623;DHT22;11478;51.094;7.030;2023-07-13T15:52:22;20.30;99.90
22623;DHT22;11478;51.094;7.030;2023-07-13T15:54:49;20.00;99.90
22623;DHT22;11478;51.094;7.030;2023-07-13T15:57:22;19.70;99.90
22623;DHT22;11478;51.094;7.030;2023-07-13T15:59:51;19.60;99.90
22623;DHT22;11478;51.094;7.030;2023-07-13T16:02:20;19.50;99.90
22623;DHT22;11478;51.094;7.030;2023-07-13T16:04:56;19.40;99.90
22623;DHT22;11478;51.094;7.030;2023-07-13T16:07:37;19.40;99.90
22623;DHT22;11478;51.094;7.030;2023-07-13T16:10:17;19.30;99.90
22623;DHT22;11478;51.094;7.030;2023-07-13T16:13:09;19.20;99.90
22623;DHT22;11478;51.094;7.030;2023-07-13T16:15:40;19.20;99.90
22623;DHT22;11478;51.094;7.030;2023-07-13T16:21:14;19.10;99.90
22623;DHT22;11478;51.094;7.030;2023-07-13T16:23:49;19.00;99.90
22623;DHT22;11478;51.094;7.030;2023-07-13T16:26:24;19.00;99.90
22623;DHT22;11478;51.094;7.030;2023-07-13T16:28:52;19.00;99.90
22623;DHT22;11478;51.094;7.030;2023-07-13T16:34:48;19.00;99.90
22623;DHT22;11478;51.094;7.030;2023-07-13T16:37:40;19.10;99.90
22623;DHT22;11478;51.094;7.030;2023-07-13T16:43:44;19.10;99.90
22623;DHT22;11478;51.094;7.030;2023-07-13T16:46:19;19.20;99.90
22623;DHT22;11478;51.094;7.030;2023-07-13T16:48:50;19.20;99.90
22623;DHT22;11478;51.094;7.030;2023-07-13T16:54:12;19.20;99.90
22623;DHT22;11478;51.094;7.030;2023-07-13T16:56:48;19.20;99.90
22623;DHT22;11478;51.094;7.030;2023-07-13T16:59:18;19.20;99.90
22623;DHT22;11478;51.094;7.030;2023-07-13T17:01:46;19.20;99.90
22623;DHT22;11478;51.094;7.030;2023-07-13T17:04:14;19.20;99.90
22623;DHT22;11478;51.094;7.030;2023-07-13T17:06:46;19.20;99.90
22623;DHT22;11478;51.094;7.030;2023-07-13T17:13:25;19.30;99.90
22623;DHT22;11478;51.094;7.030;2023-07-13T17:51:55;19.50;99.90
22623;DHT22;11478;51.094;7.030;2023-07-13T18:01:22;19.40;99.90
22623;DHT22;11478;51.094;7.030;2023-07-13T18:46:05;18.60;99.90
22623;DHT22;11478;51.094;7.030;2023-07-13T18:48:51;18.50;99.90
22623;DHT22;11478;51.094;7.030;2023-07-13T18:51:55;18.50;99.90
22623;DHT22;11478;51.094;7.030;2023-07-13T18:54:50;18.40;99.90
22623;DHT22;11478;51.094;7.030;2023-07-13T18:57:19;18.40;99.90
22623;DHT22;11478;51.094;7.030;2023-07-13T18:59:48;18.30;99.90
22623;DHT22;11478;51.094;7.030;2023-07-13T19:02:24;18.20;99.90
22623;DHT22;11478;51.094;7.030;2023-07-13T19:04:50;18.20;99.90
22623;DHT22;11478;51.094;7.030;2023-07-13T19:07:25;18.10;99.90
22623;DHT22;11478;51.094;7.030;2023-07-13T19:09:54;18.10;99.90
22623;DHT22;11478;51.094;7.030;2023-07-13T19:12:25;18.00;99.90
